Time;durP1;ratioP1;P1;durP2;ratioP2;P2;SDS_P1;SDS_P2;PMS_P1;PMS_P2;Temp;Humidity;BMP_temperature;BMP_pressure;BME280_temperature;BME280_humidity;BME280_pressure;Samples;Min_cycle;Max_cycle;Signal;HPM_P1;HPM_P2
2022/12/18 00:02:09;;;;;;;205.88;195.90;;;-5.70;99.90;;;;;;5077301;28;20647;-84
2022/12/18 00:04:35;;;;;;;201.02;191.77;;;-5.70;99.90;;;;;;5078032;28;20204;-84
2022/12/18 00:07:02;;;;;;;194.95;185.50;;;-5.80;99.90;;;;;;5078432;28;20200;-84
2022/12/18 00:09:29;;;;;;;191.48;181.75;;;-5.80;99.90;;;;;;5077644;28;20299;-84
2022/12/18 00:11:56;;;;;;;181.52;173.25;;;-5.90;99.90;;;;;;5078090;28;20593;-84
2022/12/18 00:14:22;;;;;;;174.90;166.63;;;-6.00;99.90;;;;;;5077697;28;20192;-85
2022/12/18 00:16:50;;;;;;;186.77;178.05;;;-5.90;99.90;;;;;;5077807;28;20196;-84
2022/12/18 00:19:17;;;;;;;182.20;173.60;;;-6.00;99.90;;;;;;5077526;28;20263;-84
2022/12/18 00:21:45;;;;;;;195.98;183.60;;;-6.10;99.90;;;;;;5077699;28;20216;-84
2022/12/18 00:24:12;;;;;;;218.63;203.88;;;-6.30;99.90;;;;;;5077912;28;20196;-83
2022/12/18 00:26:40;;;;;;;210.80;196.77;;;-6.30;99.90;;;;;;5078118;28;20200;-84
2022/12/18 00:29:08;;;;;;;259.15;246.45;;;-6.30;99.90;;;;;;5077438;28;20619;-84
2022/12/18 00:31:36;;;;;;;276.92;261.38;;;-6.10;99.90;;;;;;5078078;28;20227;-84
2022/12/18 00:34:04;;;;;;;278.88;264.65;;;-6.00;99.90;;;;;;5077574;28;20200;-84
2022/12/18 00:36:33;;;;;;;283.45;268.00;;;-6.10;99.90;;;;;;5077402;28;20192;-84
2022/12/18 00:39:01;;;;;;;270.63;254.98;;;-5.90;99.90;;;;;;5077235;28;20200;-85
2022/12/18 00:44:27;;;;;;;212.60;202.18;;;-5.90;99.90;;;;;;5035006;28;20232;-84
2022/12/18 00:46:54;;;;;;;182.23;173.13;;;-5.70;99.90;;;;;;5034488;28;20601;-84
2022/12/18 00:49:22;;;;;;;157.52;150.52;;;-5.60;99.90;;;;;;5053509;28;20250;-84
2022/12/18 00:51:49;;;;;;;140.82;133.80;;;-5.70;99.90;;;;;;5076616;28;20603;-84
2022/12/18 00:54:16;;;;;;;131.93;125.55;;;-5.60;99.90;;;;;;5077358;28;20193;-84
2022/12/18 00:56:43;;;;;;;127.15;120.50;;;-5.50;99.90;;;;;;5076661;28;20207;-84
2022/12/18 00:59:10;;;;;;;114.90;108.88;;;-5.60;99.90;;;;;;5057460;28;20189;-84
2022/12/18 01:01:36;;;;;;;88.28;83.38;;;-5.50;99.90;;;;;;5057405;28;20232;-84
2022/12/18 01:04:04;;;;;;;79.20;73.97;;;-5.50;99.90;;;;;;5076684;28;20192;-85
2022/12/18 01:06:32;;;;;;;63.65;58.92;;;-5.50;99.90;;;;;;5077396;28;20603;-84
2022/12/18 01:08:59;;;;;;;60.40;56.47;;;-5.70;99.90;;;;;;5076762;28;20224;-84
2022/12/18 01:11:26;;;;;;;57.05;53.00;;;-5.80;99.90;;;;;;5076839;28;20216;-84
2022/12/18 01:13:53;;;;;;;60.70;56.65;;;-5.90;99.90;;;;;;5077358;28;20196;-84
2022/12/18 01:16:20;;;;;;;57.90;54.03;;;-6.00;99.90;;;;;;5077287;28;20556;-85
2022/12/18 01:18:47;;;;;;;57.22;52.53;;;-6.10;99.90;;;;;;5076047;28;20196;-84
2022/12/18 01:21:16;;;;;;;56.42;52.13;;;-6.10;99.90;;;;;;5076524;28;20841;-83
2022/12/18 01:23:44;;;;;;;58.33;53.95;;;-6.30;99.90;;;;;;5077777;28;20203;-84
2022/12/18 01:26:12;;;;;;;77.22;72.72;;;-6.30;99.90;;;;;;5076973;28;20189;-83
2022/12/18 01:28:39;;;;;;;114.35;107.15;;;-6.20;99.90;;;;;;5077029;28;20211;-83
2022/12/18 01:31:18;;;;;;;137.63;129.82;;;-6.30;99.90;;;;;;5076949;28;20660;-84
2022/12/18 01:33:45;;;;;;;176.27;167.63;;;-6.20;99.90;;;;;;5077122;28;20199;-84
2022/12/18 01:36:17;;;;;;;196.55;188.45;;;-6.20;99.90;;;;;;5077221;28;20193;-84
2022/12/18 01:38:45;;;;;;;215.70;205.70;;;-6.00;99.90;;;;;;5076965;28;20660;-84
2022/12/18 01:41:12;;;;;;;194.52;186.15;;;-5.90;99.90;;;;;;5076491;28;20199;-84
2022/12/18 01:43:54;;;;;;;168.80;160.15;;;-5.80;99.90;;;;;;5076676;28;20196;-85
2022/12/18 01:46:22;;;;;;;140.88;133.85;;;-5.80;99.90;;;;;;5077018;28;20200;-84
2022/12/18 01:48:52;;;;;;;133.57;126.93;;;-5.90;99.90;;;;;;5077249;28;20224;-84
2022/12/18 01:51:19;;;;;;;109.90;104.03;;;-6.00;99.90;;;;;;5076364;28;20195;-84
2022/12/18 01:53:48;;;;;;;104.57;99.18;;;-6.00;99.90;;;;;;5076936;28;20692;-84
2022/12/18 01:56:17;;;;;;;103.50;97.15;;;-6.10;99.90;;;;;;5076232;28;20192;-84
2022/12/18 01:58:52;;;;;;;104.68;99.55;;;-6.20;99.90;;;;;;5076405;28;20215;-84
2022/12/18 02:01:20;;;;;;;119.00;112.95;;;-6.30;99.90;;;;;;5075752;28;20649;-84
2022/12/18 02:03:47;;;;;;;134.25;127.78;;;-6.20;99.90;;;;;;5076222;28;20184;-84
2022/12/18 02:06:17;;;;;;;121.80;115.82;;;-6.30;99.90;;;;;;5076993;28;20193;-84
2022/12/18 02:08:56;;;;;;;125.60;119.35;;;-6.30;99.90;;;;;;5076698;28;20212;-84
2022/12/18 02:11:33;;;;;;;123.15;117.28;;;-6.40;99.90;;;;;;5075832;28;20216;-83
2022/12/18 02:14:08;;;;;;;151.20;143.82;;;-6.40;99.90;;;;;;5076563;28;20200;-82
2022/12/18 02:16:40;;;;;;;191.27;182.10;;;-6.40;99.90;;;;;;5076853;28;20188;-84
2022/12/18 02:19:21;;;;;;;213.07;204.43;;;-6.50;99.90;;;;;;5076657;28;20192;-84
2022/12/18 02:21:58;;;;;;;230.63;221.27;;;-6.40;99.90;;;;;;5076644;28;20220;-83
2022/12/18 02:24:35;;;;;;;225.82;216.93;;;-6.30;99.90;;;;;;5077185;28;20207;-84
2022/12/18 02:27:05;;;;;;;228.90;218.48;;;-6.40;99.90;;;;;;5079976;28;20207;-84
2022/12/18 02:29:38;;;;;;;244.13;233.20;;;-6.40;99.90;;;;;;5080362;28;20223;-84
2022/12/18 02:32:13;;;;;;;258.13;247.32;;;-6.40;99.90;;;;;;5079861;28;20223;-84
2022/12/18 02:34:42;;;;;;;275.10;263.50;;;-6.30;99.90;;;;;;5079946;28;20203;-84
2022/12/18 02:37:13;;;;;;;258.98;248.38;;;-6.40;99.90;;;;;;5080053;28;20196;-84
2022/12/18 02:39:43;;;;;;;279.75;267.33;;;-6.40;99.90;;;;;;5078877;28;20189;-84
2022/12/18 02:42:12;;;;;;;272.55;260.38;;;-6.40;99.90;;;;;;5079349;28;20208;-84
2022/12/18 02:44:44;;;;;;;269.90;257.95;;;-6.30;99.90;;;;;;5079805;28;20208;-83
2022/12/18 02:47:12;;;;;;;247.48;236.38;;;-6.30;99.90;;;;;;5079733;28;20235;-85
2022/12/18 02:49:49;;;;;;;250.50;239.38;;;-6.20;99.90;;;;;;5079254;28;20265;-84
2022/12/18 02:52:23;;;;;;;244.35;232.90;;;-6.20;99.90;;;;;;5079390;28;20216;-84
2022/12/18 02:55:00;;;;;;;218.93;208.52;;;-6.10;99.90;;;;;;5079856;28;20202;-84
2022/12/18 02:57:35;;;;;;;204.25;194.27;;;-6.10;99.90;;;;;;5080031;28;20197;-84
2022/12/18 03:00:07;;;;;;;212.23;201.52;;;-6.10;99.90;;;;;;5079977;28;20246;-84
2022/12/18 03:02:39;;;;;;;188.77;179.43;;;-6.10;99.90;;;;;;5079276;28;20216;-84
2022/12/18 03:05:12;;;;;;;185.52;177.05;;;-6.10;99.90;;;;;;5079957;28;20199;-84
2022/12/18 03:07:46;;;;;;;176.90;168.20;;;-6.10;99.90;;;;;;5079524;28;22324;-83
2022/12/18 03:10:17;;;;;;;183.30;174.23;;;-5.90;99.90;;;;;;5079770;28;20220;-84
2022/12/18 03:12:52;;;;;;;158.43;151.02;;;-5.90;99.90;;;;;;5079387;28;20222;-85
2022/12/18 03:15:24;;;;;;;146.00;138.85;;;-5.90;99.90;;;;;;5079969;28;20199;-85
2022/12/18 03:17:57;;;;;;;128.80;121.68;;;-5.70;99.90;;;;;;5079054;28;20665;-84
2022/12/18 03:20:26;;;;;;;114.40;107.80;;;-5.80;99.90;;;;;;5078494;28;20200;-84
2022/12/18 03:22:56;;;;;;;104.95;99.65;;;-5.80;99.90;;;;;;5078916;28;20700;-84
2022/12/18 03:25:23;;;;;;;91.53;86.68;;;-5.70;99.90;;;;;;5079303;28;20208;-84
2022/12/18 03:27:56;;;;;;;85.10;80.10;;;-5.80;99.90;;;;;;5078857;28;20576;-84
2022/12/18 03:30:23;;;;;;;74.50;69.95;;;-5.70;99.90;;;;;;5078541;28;20283;-84
2022/12/18 03:32:54;;;;;;;71.20;66.18;;;-5.80;99.90;;;;;;5078747;28;20213;-84
2022/12/18 03:35:27;;;;;;;69.28;64.57;;;-5.80;99.90;;;;;;5079167;28;20200;-84
2022/12/18 03:37:54;;;;;;;61.47;57.42;;;-5.80;99.90;;;;;;5078174;28;20192;-84
2022/12/18 03:40:25;;;;;;;60.08;55.22;;;-5.90;99.90;;;;;;5078805;28;20196;-84
2022/12/18 03:43:01;;;;;;;58.92;54.60;;;-5.90;99.90;;;;;;5078364;28;20228;-84
2022/12/18 03:45:35;;;;;;;55.38;51.42;;;-6.00;99.90;;;;;;5079024;28;20200;-84
2022/12/18 03:48:06;;;;;;;55.58;51.53;;;-6.20;99.90;;;;;;5078517;28;20202;-84
2022/12/18 03:50:44;;;;;;;67.07;62.53;;;-6.20;99.90;;;;;;5078634;28;20219;-84
2022/12/18 03:53:23;;;;;;;71.13;66.97;;;-6.30;99.90;;;;;;5078966;28;20212;-84
2022/12/18 03:55:51;;;;;;;93.00;87.28;;;-6.30;99.90;;;;;;5078489;28;20199;-84
2022/12/18 03:58:24;;;;;;;102.88;97.55;;;-6.30;99.90;;;;;;5079506;28;20196;-85
2022/12/18 04:00:53;;;;;;;114.55;108.25;;;-6.20;99.90;;;;;;5078129;28;20189;-85
2022/12/18 04:03:21;;;;;;;103.25;98.10;;;-6.30;99.90;;;;;;5077135;28;20209;-84
2022/12/18 04:05:51;;;;;;;109.05;103.47;;;-6.30;99.90;;;;;;5079011;28;20537;-84
2022/12/18 04:08:18;;;;;;;115.53;109.88;;;-6.30;99.90;;;;;;5078897;28;20684;-83
2022/12/18 04:10:45;;;;;;;120.13;113.68;;;-6.30;99.90;;;;;;5078042;28;20208;-84
2022/12/18 04:13:12;;;;;;;123.47;117.57;;;-6.20;99.90;;;;;;5078717;28;20216;-85
2022/12/18 04:15:41;;;;;;;127.57;121.72;;;-6.30;99.90;;;;;;5077662;28;20188;-84
2022/12/18 04:18:09;;;;;;;129.38;123.13;;;-6.20;99.90;;;;;;5079091;28;20200;-84
2022/12/18 04:20:35;;;;;;;144.70;137.35;;;-6.10;99.90;;;;;;5077993;28;20195;-85
2022/12/18 04:23:02;;;;;;;139.55;132.90;;;-6.20;99.90;;;;;;5079731;28;20216;-86
2022/12/18 04:25:29;;;;;;;148.20;141.13;;;-6.20;99.90;;;;;;5079191;28;20219;-85
2022/12/18 04:27:55;;;;;;;173.55;165.13;;;-6.00;99.90;;;;;;5078377;28;20193;-85
2022/12/18 04:30:22;;;;;;;153.93;145.38;;;-5.90;99.90;;;;;;5078648;28;20212;-84
2022/12/18 04:32:50;;;;;;;121.05;114.90;;;-5.90;99.90;;;;;;5079516;28;20220;-86
2022/12/18 04:35:17;;;;;;;103.40;97.15;;;-5.80;99.90;;;;;;5078918;28;20188;-85
2022/12/18 04:37:44;;;;;;;87.60;82.45;;;-5.90;99.90;;;;;;5077590;28;20192;-86
2022/12/18 04:40:12;;;;;;;78.55;73.88;;;-6.00;99.90;;;;;;5075943;28;20181;-84
2022/12/18 04:42:40;;;;;;;79.53;75.35;;;-6.00;99.90;;;;;;5076391;28;20211;-84
2022/12/18 04:45:08;;;;;;;85.65;80.60;;;-5.90;99.90;;;;;;5063857;28;20204;-83
2022/12/18 04:47:34;;;;;;;95.07;89.88;;;-6.00;99.90;;;;;;5077078;28;20189;-83
2022/12/18 04:50:03;;;;;;;87.70;82.53;;;-5.90;99.90;;;;;;5078196;28;20222;-84
2022/12/18 04:52:32;;;;;;;73.60;69.05;;;-5.80;99.90;;;;;;5077740;28;20216;-84
2022/12/18 04:54:59;;;;;;;70.95;66.68;;;-5.80;99.90;;;;;;5078288;28;20200;-85
2022/12/18 04:57:27;;;;;;;72.32;67.35;;;-5.90;99.90;;;;;;5078918;28;20196;-84
2022/12/18 04:59:54;;;;;;;65.07;60.42;;;-5.90;99.90;;;;;;5077854;28;20672;-84
2022/12/18 05:02:21;;;;;;;67.45;62.70;;;-5.90;99.90;;;;;;5078562;28;20216;-84
2022/12/18 05:04:47;;;;;;;64.40;59.47;;;-6.00;99.90;;;;;;5077114;28;20200;-83
2022/12/18 05:07:15;;;;;;;68.35;64.00;;;-6.00;99.90;;;;;;5077737;28;20200;-84
2022/12/18 05:09:42;;;;;;;69.28;64.18;;;-5.90;99.90;;;;;;5076900;28;20235;-84
2022/12/18 05:12:09;;;;;;;72.95;68.50;;;-6.00;99.90;;;;;;5077480;28;20712;-84
2022/12/18 05:14:36;;;;;;;78.45;72.97;;;-5.90;99.90;;;;;;5077599;28;20200;-84
2022/12/18 05:17:02;;;;;;;77.82;72.22;;;-5.80;99.90;;;;;;5077914;28;20196;-84
2022/12/18 05:19:29;;;;;;;79.03;74.03;;;-5.70;99.90;;;;;;5078455;28;20192;-84
2022/12/18 05:21:56;;;;;;;72.68;67.78;;;-5.80;99.90;;;;;;5077094;28;20212;-85
2022/12/18 05:24:24;;;;;;;66.90;62.25;;;-5.70;99.90;;;;;;5077842;28;20728;-84
2022/12/18 05:26:50;;;;;;;66.22;60.92;;;-5.90;99.90;;;;;;5077450;28;20580;-84
2022/12/18 05:29:17;;;;;;;73.70;66.95;;;-5.80;99.90;;;;;;5078095;28;20191;-85
2022/12/18 05:31:44;;;;;;;66.80;61.88;;;-5.80;99.90;;;;;;5077683;28;20208;-84
2022/12/18 05:34:10;;;;;;;58.33;53.50;;;-5.80;99.90;;;;;;5077958;28;20196;-84
2022/12/18 05:36:37;;;;;;;53.63;48.53;;;-5.90;99.90;;;;;;5078448;28;20189;-84
2022/12/18 05:39:04;;;;;;;54.63;50.47;;;-5.90;99.90;;;;;;5077126;28;20184;-84
2022/12/18 05:41:32;;;;;;;60.40;56.08;;;-6.00;99.90;;;;;;5075488;28;20220;-85
2022/12/18 05:44:00;;;;;;;65.43;60.92;;;-6.00;99.90;;;;;;5077320;28;20231;-84
2022/12/18 05:46:27;;;;;;;67.55;62.97;;;-6.00;99.90;;;;;;5077516;28;20188;-84
2022/12/18 05:48:54;;;;;;;62.08;57.88;;;-6.00;99.90;;;;;;5077284;28;20211;-84
2022/12/18 05:51:22;;;;;;;71.30;66.50;;;-6.00;99.90;;;;;;5077070;28;21007;-84
2022/12/18 05:53:49;;;;;;;74.28;69.40;;;-6.00;99.90;;;;;;5077281;28;20275;-84
2022/12/18 05:56:19;;;;;;;70.43;65.63;;;-6.00;99.90;;;;;;5076902;28;20613;-84
2022/12/18 05:58:48;;;;;;;70.68;66.45;;;-5.90;99.90;;;;;;5076741;28;20192;-84
2022/12/18 06:01:17;;;;;;;74.40;68.93;;;-5.80;99.90;;;;;;5079518;28;20201;-84
2022/12/18 06:03:44;;;;;;;74.18;68.97;;;-5.90;99.90;;;;;;5080379;28;20195;-84
2022/12/18 06:06:15;;;;;;;84.72;79.30;;;-5.90;99.90;;;;;;5079577;28;20197;-85
2022/12/18 06:08:42;;;;;;;91.05;84.95;;;-5.90;99.90;;;;;;5080418;28;20189;-84
2022/12/18 06:11:09;;;;;;;95.07;89.68;;;-5.80;99.90;;;;;;5080138;28;20216;-84
2022/12/18 06:13:35;;;;;;;87.22;81.40;;;-5.70;99.90;;;;;;5081615;28;20192;-85
2022/12/18 06:16:05;;;;;;;94.80;88.35;;;-5.80;99.90;;;;;;5080473;28;20193;-84
2022/12/18 06:18:31;;;;;;;86.93;81.68;;;-5.70;99.90;;;;;;5082429;28;20657;-83
2022/12/18 06:20:59;;;;;;;92.82;86.90;;;-5.70;99.90;;;;;;5081545;28;20192;-84
2022/12/18 06:23:26;;;;;;;89.15;83.63;;;-5.70;99.90;;;;;;5082297;28;20607;-84
2022/12/18 06:25:53;;;;;;;74.30;69.18;;;-5.60;99.90;;;;;;5081306;28;20665;-83
2022/12/18 06:28:20;;;;;;;69.35;63.85;;;-5.50;99.90;;;;;;5081137;28;20198;-84
2022/12/18 06:30:49;;;;;;;53.78;49.30;;;-5.40;99.90;;;;;;5080109;28;20212;-82
2022/12/18 06:36:14;;;;;;;32.58;29.48;;;-5.30;99.90;;;;;;5041203;28;20193;-84
2022/12/18 06:38:43;;;;;;;30.33;27.45;;;-5.20;99.90;;;;;;5080842;28;20200;-83
2022/12/18 06:41:27;;;;;;;;;;;;;;;;;;;;;
2022/12/18 06:44:11;;;;;;;29.92;23.95;;;-5.10;99.90;;;;;;5081376;28;20235;-83
2022/12/18 06:46:40;;;;;;;27.38;24.98;;;-5.10;99.90;;;;;;5080432;28;20199;-84
2022/12/18 06:49:31;;;;;;;22.25;20.33;;;-5.20;99.90;;;;;;5080589;28;20220;-83
2022/12/18 06:51:58;;;;;;;35.50;26.00;;;-5.20;99.90;;;;;;5080845;28;20217;-85
2022/12/18 06:54:25;;;;;;;32.75;26.15;;;-5.10;99.90;;;;;;5080404;28;20191;-85
2022/12/18 06:56:51;;;;;;;34.03;28.40;;;-5.00;99.90;;;;;;5080514;28;20193;-84
2022/12/18 06:59:18;;;;;;;39.33;24.65;;;-5.00;99.90;;;;;;5080693;28;20185;-84
2022/12/18 07:01:45;;;;;;;26.77;23.05;;;-5.00;99.90;;;;;;5080190;28;20244;-84
2022/12/18 07:04:12;;;;;;;40.88;25.73;;;-5.10;99.90;;;;;;5080350;28;20197;-83
2022/12/18 07:06:40;;;;;;;24.27;18.48;;;-5.20;99.90;;;;;;5079547;28;20657;-84
2022/12/18 07:09:06;;;;;;;34.97;21.60;;;-5.10;99.90;;;;;;5079404;28;20204;-83
2022/12/18 07:11:33;;;;;;;30.80;25.65;;;-5.20;99.90;;;;;;5078609;28;20640;-84
2022/12/18 07:14:00;;;;;;;25.10;20.90;;;-5.10;99.90;;;;;;5080215;28;20676;-84
2022/12/18 07:16:28;;;;;;;38.67;29.15;;;-5.10;99.90;;;;;;5080369;28;20196;-84
2022/12/18 07:18:55;;;;;;;35.13;28.35;;;-5.20;99.90;;;;;;5080112;28;20196;-84
2022/12/18 07:24:32;;;;;;;41.63;32.28;;;-5.20;99.90;;;;;;5057539;28;20211;-81
2022/12/18 07:27:00;;;;;;;42.17;27.05;;;-5.20;99.90;;;;;;4970690;28;20209;-84
2022/12/18 07:29:27;;;;;;;28.33;23.85;;;-5.20;99.90;;;;;;5040152;28;20198;-83
2022/12/18 07:31:54;;;;;;;35.30;23.17;;;-5.10;99.90;;;;;;5066511;28;20217;-84
2022/12/18 07:34:21;;;;;;;38.83;25.85;;;-5.00;99.90;;;;;;5060161;28;20204;-84
2022/12/18 07:36:49;;;;;;;29.85;22.73;;;-5.10;99.90;;;;;;5045711;28;20194;-87
2022/12/18 07:39:16;;;;;;;37.35;21.30;;;-5.10;99.90;;;;;;5042513;28;20193;-85
2022/12/18 07:41:45;;;;;;;39.75;23.17;;;-5.10;99.90;;;;;;5045751;28;20206;-85
2022/12/18 07:44:14;;;;;;;31.95;20.90;;;-5.20;99.90;;;;;;5061293;28;20201;-85
2022/12/18 07:46:40;;;;;;;48.70;24.73;;;-5.20;99.90;;;;;;5056755;28;20194;-85
2022/12/18 07:49:07;;;;;;;38.70;28.25;;;-5.20;99.90;;;;;;5052701;28;20692;-85
2022/12/18 07:51:34;;;;;;;29.70;22.13;;;-5.10;99.90;;;;;;5057454;28;20225;-85
2022/12/18 07:54:00;;;;;;;31.45;24.67;;;-5.10;99.90;;;;;;5041323;28;20256;-84
2022/12/18 07:56:27;;;;;;;34.30;23.27;;;-5.20;99.90;;;;;;5048145;28;20196;-85
2022/12/18 07:58:54;;;;;;;31.05;20.95;;;-5.20;99.90;;;;;;5041076;28;20202;-85
2022/12/18 08:01:22;;;;;;;30.15;24.67;;;-5.20;99.90;;;;;;5045251;28;20188;-86
2022/12/18 08:03:49;;;;;;;39.25;27.85;;;-5.00;99.90;;;;;;5057610;28;20665;-85
2022/12/18 08:06:16;;;;;;;34.97;24.90;;;-5.10;99.90;;;;;;5056907;28;20235;-86
2022/12/18 08:08:42;;;;;;;33.55;27.33;;;-5.10;99.90;;;;;;5057883;28;20200;-86
2022/12/18 08:11:09;;;;;;;34.50;26.30;;;-5.10;99.90;;;;;;5052497;28;20201;-86
2022/12/18 08:13:36;;;;;;;30.27;24.42;;;-5.00;99.90;;;;;;5042604;28;20197;-85
2022/12/18 08:16:05;;;;;;;31.40;28.05;;;-5.10;99.90;;;;;;5058137;28;20795;-85
2022/12/18 08:18:35;;;;;;;39.47;35.55;;;-4.90;99.90;;;;;;5055339;28;20204;-85
2022/12/18 08:21:09;;;;;;;41.25;33.45;;;-4.70;99.90;;;;;;5037459;28;20200;-86
2022/12/18 08:23:35;;;;;;;28.88;25.63;;;-4.70;99.90;;;;;;5039261;28;20221;-85
2022/12/18 08:26:02;;;;;;;36.10;24.92;;;-4.50;99.90;;;;;;5058063;28;20204;-85
2022/12/18 08:28:29;;;;;;;29.50;21.40;;;-4.50;99.90;;;;;;5056716;28;20228;-85
2022/12/18 08:30:55;;;;;;;33.17;20.15;;;-4.40;99.90;;;;;;5038003;28;20226;-85
2022/12/18 08:33:22;;;;;;;32.70;20.08;;;-4.30;99.90;;;;;;5038061;28;20221;-85
2022/12/18 08:35:50;;;;;;;26.30;17.27;;;-4.30;99.90;;;;;;5057948;28;20200;-86
2022/12/18 08:38:17;;;;;;;21.27;13.90;;;-4.10;99.90;;;;;;5058866;28;20197;-84
2022/12/18 08:40:44;;;;;;;24.77;17.45;;;-4.10;99.90;;;;;;5038487;28;20269;-86
2022/12/18 08:45:56;;;;;;;29.33;19.10;;;-3.80;99.90;;;;;;5040269;28;20231;-85
2022/12/18 08:48:23;;;;;;;33.88;18.50;;;-3.80;99.90;;;;;;5033023;28;20190;-85
2022/12/18 08:50:56;;;;;;;26.17;15.57;;;-3.80;99.90;;;;;;5025856;28;20590;-86
2022/12/18 08:53:23;;;;;;;25.83;15.05;;;-3.60;99.90;;;;;;5038036;28;20211;-86
2022/12/18 08:55:50;;;;;;;28.70;15.32;;;-3.60;99.90;;;;;;5044097;28;20190;-85
2022/12/18 08:58:17;;;;;;;29.77;16.88;;;-3.50;99.90;;;;;;5053029;28;20193;-84
2022/12/18 09:00:44;;;;;;;25.95;14.50;;;-3.40;99.90;;;;;;5047626;28;20670;-84
2022/12/18 09:03:13;;;;;;;23.88;13.35;;;-3.40;99.90;;;;;;5041208;28;20217;-85
2022/12/18 09:05:39;;;;;;;23.48;14.70;;;-3.40;99.90;;;;;;5036960;28;20209;-86
2022/12/18 09:08:07;;;;;;;38.85;16.80;;;-3.30;99.90;;;;;;5048491;28;20200;-85
2022/12/18 09:10:34;;;;;;;31.02;15.77;;;-3.30;99.90;;;;;;5050316;28;20206;-85
2022/12/18 09:13:01;;;;;;;24.75;15.45;;;-3.20;99.90;;;;;;5042217;28;20232;-85
2022/12/18 09:15:28;;;;;;;21.58;13.82;;;-3.30;99.90;;;;;;5050125;28;20192;-85
2022/12/18 09:17:54;;;;;;;23.48;13.80;;;-3.20;99.90;;;;;;5050836;28;20657;-86
2022/12/18 09:20:21;;;;;;;23.25;13.90;;;-3.20;99.90;;;;;;5056001;28;20197;-85
2022/12/18 09:22:48;;;;;;;23.77;14.38;;;-3.10;99.90;;;;;;5037836;28;20605;-85
2022/12/18 09:25:16;;;;;;;26.73;12.73;;;-3.00;99.90;;;;;;5042794;28;20189;-86
2022/12/18 09:27:43;;;;;;;25.05;13.75;;;-3.00;99.90;;;;;;5044416;28;20677;-86
2022/12/18 09:30:11;;;;;;;25.08;15.05;;;-2.90;99.90;;;;;;5050437;28;20192;-85
2022/12/18 09:32:37;;;;;;;29.33;17.17;;;-2.60;99.90;;;;;;5036726;28;20214;-86
2022/12/18 09:35:05;;;;;;;23.83;14.93;;;-2.70;99.90;;;;;;5038972;28;20669;-85
2022/12/18 09:37:31;;;;;;;26.30;13.15;;;-2.50;99.90;;;;;;5054940;28;20193;-85
2022/12/18 09:39:58;;;;;;;23.30;12.88;;;-2.50;99.90;;;;;;5051150;28;20220;-85
2022/12/18 09:42:26;;;;;;;21.33;16.25;;;-2.40;99.90;;;;;;5051339;28;20229;-85
2022/12/18 09:44:54;;;;;;;23.60;13.10;;;-2.30;99.90;;;;;;5040883;28;20197;-85
2022/12/18 09:47:24;;;;;;;18.08;11.52;;;-2.40;99.90;;;;;;5041486;28;20196;-85
2022/12/18 09:49:55;;;;;;;19.40;12.60;;;-2.30;99.90;;;;;;5039811;28;20662;-85
2022/12/18 09:52:28;;;;;;;21.50;14.43;;;-2.20;99.90;;;;;;5044139;28;20217;-86
2022/12/18 09:54:57;;;;;;;17.80;12.27;;;-2.20;99.90;;;;;;5053206;28;20215;-85
2022/12/18 09:57:26;;;;;;;23.80;13.15;;;-2.20;99.90;;;;;;5040932;28;20190;-85
2022/12/18 09:59:57;;;;;;;25.05;13.82;;;-2.10;99.90;;;;;;5040567;28;20194;-84
2022/12/18 10:02:25;;;;;;;29.92;15.27;;;-2.00;99.90;;;;;;5044029;28;20201;-84
2022/12/18 10:05:03;;;;;;;23.50;14.48;;;-1.90;99.90;;;;;;5041672;28;20193;-84
2022/12/18 10:07:39;;;;;;;29.33;13.52;;;-2.00;99.90;;;;;;5039889;28;20232;-84
2022/12/18 10:10:13;;;;;;;22.23;12.93;;;-1.90;99.90;;;;;;5047162;28;20205;-85
2022/12/18 10:12:47;;;;;;;21.95;12.80;;;-1.80;99.90;;;;;;5038183;28;20226;-84
2022/12/18 10:15:24;;;;;;;23.38;14.27;;;-1.70;99.90;;;;;;5039391;28;20202;-85
2022/12/18 10:17:56;;;;;;;23.55;10.85;;;-1.70;99.90;;;;;;5058458;28;20201;-84
2022/12/18 10:20:30;;;;;;;24.23;12.98;;;-1.70;99.90;;;;;;5055624;28;20216;-84
2022/12/18 10:23:04;;;;;;;22.58;13.90;;;-1.60;99.90;;;;;;5037859;28;20225;-84
2022/12/18 10:25:39;;;;;;;23.70;12.80;;;-1.50;99.90;;;;;;5041167;28;20190;-84
2022/12/18 10:28:13;;;;;;;26.67;15.65;;;-1.40;99.90;;;;;;5058190;28;20626;-86
2022/12/18 10:30:41;;;;;;;26.67;15.50;;;-1.40;99.90;;;;;;5045741;28;20190;-85
2022/12/18 10:33:14;;;;;;;25.27;13.30;;;-1.30;99.90;;;;;;5044345;28;20471;-84
2022/12/18 10:35:42;;;;;;;26.67;14.50;;;-1.30;99.90;;;;;;5040891;28;20832;-85
2022/12/18 10:38:23;;;;;;;27.97;14.00;;;-1.20;99.90;;;;;;5048407;28;20200;-85
2022/12/18 10:40:52;;;;;;;24.95;13.32;;;-1.20;99.90;;;;;;5045014;28;20452;-86
2022/12/18 10:43:24;;;;;;;22.23;12.10;;;-1.10;99.90;;;;;;5038568;28;20210;-85
2022/12/18 10:46:12;;;;;;;27.97;14.60;;;-1.10;99.90;;;;;;5046640;28;20485;-85
2022/12/18 10:48:53;;;;;;;22.75;12.43;;;-1.10;99.90;;;;;;5048944;28;20458;-85
2022/12/18 10:51:25;;;;;;;25.23;13.25;;;-1.00;99.90;;;;;;5042915;28;20205;-86
2022/12/18 10:53:56;;;;;;;21.23;11.55;;;-1.10;99.90;;;;;;5043940;28;20189;-85
2022/12/18 10:56:24;;;;;;;22.00;11.98;;;-1.00;99.90;;;;;;5040797;28;20197;-85
2022/12/18 10:58:59;;;;;;;19.48;11.40;;;-0.90;99.90;;;;;;5046048;28;20197;-84
2022/12/18 11:01:26;;;;;;;25.50;14.40;;;-0.80;99.90;;;;;;5038733;28;20213;-84
2022/12/18 11:04:09;;;;;;;20.57;12.83;;;-0.70;99.90;;;;;;5054193;28;20458;-85
2022/12/18 11:06:54;;;;;;;23.57;13.27;;;-0.80;99.90;;;;;;5045121;28;20487;-85
2022/12/18 11:09:22;;;;;;;19.80;12.90;;;-0.60;99.90;;;;;;5029605;28;20451;-85
2022/12/18 11:11:52;;;;;;;27.10;15.20;;;-0.60;99.90;;;;;;5041561;28;20483;-86
2022/12/18 11:14:25;;;;;;;25.08;13.52;;;-0.60;99.90;;;;;;5039539;28;20448;-86
2022/12/18 11:16:53;;;;;;;17.20;9.60;;;-0.60;99.90;;;;;;5044173;28;20186;-86
2022/12/18 11:19:33;;;;;;;27.93;14.17;;;-0.70;99.90;;;;;;5052551;28;20812;-85
2022/12/18 11:22:01;;;;;;;25.80;14.67;;;-0.60;99.90;;;;;;5055294;28;20486;-85
2022/12/18 11:24:30;;;;;;;16.50;10.40;;;-0.50;99.90;;;;;;5053426;28;20813;-85
2022/12/18 11:26:59;;;;;;;21.63;11.82;;;-0.50;99.90;;;;;;5043116;28;20960;-86
2022/12/18 11:29:33;;;;;;;23.90;11.90;;;-0.50;99.90;;;;;;5037186;28;20201;-86
2022/12/18 11:32:42;;;;;;;22.73;12.60;;;-0.50;99.90;;;;;;5039099;28;20484;-86
2022/12/18 11:35:18;;;;;;;22.23;12.67;;;-0.40;99.90;;;;;;5040534;28;20447;-86
2022/12/18 11:37:49;;;;;;;21.20;12.82;;;-0.30;99.90;;;;;;5044541;28;20446;-86
2022/12/18 11:40:20;;;;;;;27.50;13.93;;;-0.40;99.90;;;;;;5046295;28;20201;-86
2022/12/18 11:42:53;;;;;;;24.80;13.63;;;-0.40;99.90;;;;;;5042420;28;20468;-87
2022/12/18 11:45:28;;;;;;;29.80;13.43;;;-0.40;99.90;;;;;;5044208;28;21032;-86
2022/12/18 11:48:00;;;;;;;30.53;12.50;;;-0.30;99.90;;;;;;5037802;28;20447;-86
2022/12/18 11:50:32;;;;;;;28.63;14.63;;;-0.30;99.90;;;;;;5036562;28;20449;-86
2022/12/18 11:52:59;;;;;;;25.38;12.80;;;-0.30;99.90;;;;;;5037037;28;20491;-86
2022/12/18 11:55:35;;;;;;;20.30;12.20;;;-0.30;99.90;;;;;;5037025;28;20198;-86
2022/12/18 11:58:11;;;;;;;28.58;13.82;;;-0.40;99.90;;;;;;5037472;28;20953;-86
2022/12/18 12:00:45;;;;;;;28.87;16.37;;;-0.30;99.90;;;;;;5036686;28;20557;-88
2022/12/18 12:03:40;;;;;;;31.43;15.40;;;-0.30;99.90;;;;;;5047701;28;20975;-87
2022/12/18 12:06:14;;;;;;;28.10;14.17;;;-0.40;99.90;;;;;;5056653;28;20842;-86
2022/12/18 12:08:56;;;;;;;25.37;13.37;;;-0.40;99.90;;;;;;5037899;28;20484;-86
2022/12/18 12:11:32;;;;;;;20.95;12.40;;;-0.40;99.90;;;;;;5036155;28;20961;-86
2022/12/18 12:14:15;;;;;;;26.83;15.33;;;-0.40;99.90;;;;;;5017477;28;20702;-87
2022/12/18 12:16:51;;;;;;;25.60;14.33;;;-0.40;99.90;;;;;;5018686;28;20463;-87
2022/12/18 12:19:31;;;;;;;25.60;14.67;;;-0.30;99.90;;;;;;5056888;28;20450;-86
2022/12/18 12:22:07;;;;;;;22.40;12.00;;;-0.30;99.90;;;;;;5038354;28;20562;-87
2022/12/18 12:24:48;;;;;;;27.87;14.17;;;-0.30;99.90;;;;;;5040927;28;20487;-86
2022/12/18 12:27:23;;;;;;;26.17;15.27;;;-0.20;99.90;;;;;;5039073;28;20454;-86
2022/12/18 12:30:00;;;;;;;28.53;15.30;;;-0.40;99.90;;;;;;5037111;28;20456;-87
2022/12/18 12:32:42;;;;;;;24.80;14.00;;;-0.20;99.90;;;;;;5046267;28;20487;-87
2022/12/18 12:35:18;;;;;;;27.43;13.83;;;-0.20;99.90;;;;;;5041752;28;20459;-86
2022/12/18 12:37:54;;;;;;;24.20;12.60;;;-0.30;99.90;;;;;;5045150;28;20452;-86
2022/12/18 12:40:25;;;;;;;28.90;14.90;;;-0.30;99.90;;;;;;5042946;28;20454;-86
2022/12/18 12:43:13;;;;;;;20.77;12.07;;;-0.30;99.90;;;;;;5037370;28;20465;-86
2022/12/18 12:45:46;;;;;;;25.83;14.37;;;-0.30;99.90;;;;;;5029857;28;20541;-85
2022/12/18 12:48:19;;;;;;;28.33;14.80;;;-0.40;99.90;;;;;;5036689;28;20494;-85
2022/12/18 12:50:47;;;;;;;23.43;12.97;;;-0.20;99.90;;;;;;5052021;28;20456;-87